Time;durP1;ratioP1;P1;durP2;ratioP2;P2;SDS_P1;SDS_P2;PMS_P1;PMS_P2;Temp;Humidity;BMP_temperature;BMP_pressure;BME280_temperature;BME280_humidity;BME280_pressure;Samples;Min_cycle;Max_cycle;Signal;HPM_P1;HPM_P2
2021/08/16 00:00:37;;;;;;;6.10;5.50;;;18.60;99.90;;;;;;5053395;28;20175;-67
2021/08/16 00:03:02;;;;;;;5.93;5.43;;;18.50;99.90;;;;;;5037342;28;20201;-67
2021/08/16 00:05:28;;;;;;;6.27;5.73;;;18.40;99.90;;;;;;5052375;28;20611;-67
2021/08/16 00:07:54;;;;;;;6.10;5.63;;;18.30;99.90;;;;;;5037142;28;20199;-67
2021/08/16 00:10:20;;;;;;;6.00;5.60;;;18.30;99.90;;;;;;5033508;28;20203;-67
2021/08/16 00:12:45;;;;;;;6.73;6.23;;;18.20;99.90;;;;;;5046762;28;20182;-66
2021/08/16 00:15:11;;;;;;;6.30;5.90;;;18.10;99.90;;;;;;5052225;28;20537;-66
2021/08/16 00:17:37;;;;;;;6.77;6.17;;;18.10;99.90;;;;;;5041278;28;20207;-67
2021/08/16 00:20:03;;;;;;;6.50;6.00;;;18.00;99.90;;;;;;5033164;28;20171;-66
2021/08/16 00:22:29;;;;;;;6.40;5.90;;;18.00;99.90;;;;;;5042766;28;20647;-66
2021/08/16 00:24:54;;;;;;;6.23;5.73;;;17.90;99.90;;;;;;5053198;28;20178;-65
2021/08/16 00:27:20;;;;;;;5.80;5.40;;;17.80;99.90;;;;;;5043961;28;20617;-67
2021/08/16 00:29:45;;;;;;;6.37;5.80;;;17.60;99.90;;;;;;5032870;28;20289;-66
2021/08/16 00:32:11;;;;;;;6.13;5.57;;;17.50;99.90;;;;;;5040321;28;20246;-67
2021/08/16 00:34:37;;;;;;;7.67;6.30;;;17.40;99.90;;;;;;5053083;28;20167;-66
2021/08/16 00:37:03;;;;;;;7.17;6.10;;;17.30;99.90;;;;;;5046291;28;20191;-67
2021/08/16 00:39:28;;;;;;;6.67;6.17;;;17.20;99.90;;;;;;5048773;28;20183;-67
2021/08/16 00:41:54;;;;;;;6.37;5.87;;;17.10;99.90;;;;;;5046928;28;20172;-67
2021/08/16 00:44:20;;;;;;;6.13;5.57;;;17.00;99.90;;;;;;5033040;28;20596;-66
2021/08/16 00:46:46;;;;;;;6.07;5.63;;;16.90;99.90;;;;;;5035330;28;20222;-67
2021/08/16 00:49:11;;;;;;;6.80;5.80;;;16.90;99.90;;;;;;5051378;28;20202;-66
2021/08/16 00:51:38;;;;;;;6.30;5.80;;;16.80;99.90;;;;;;5051249;28;20167;-67
2021/08/16 00:54:06;;;;;;;6.77;6.10;;;16.80;99.90;;;;;;5032721;28;20217;-67
2021/08/16 00:56:32;;;;;;;7.27;6.77;;;16.70;99.90;;;;;;5032587;28;20305;-66
2021/08/16 00:58:59;;;;;;;6.83;6.33;;;16.70;99.90;;;;;;5051935;28;20197;-67
2021/08/16 01:01:26;;;;;;;7.23;6.63;;;16.60;99.90;;;;;;5052254;28;20182;-66
2021/08/16 01:03:52;;;;;;;6.70;6.00;;;16.60;99.90;;;;;;5036002;28;20214;-66
2021/08/16 01:06:18;;;;;;;6.83;6.07;;;16.60;99.90;;;;;;5050691;28;20292;-66
2021/08/16 01:08:46;;;;;;;6.73;6.23;;;16.50;99.90;;;;;;5052252;28;20293;-67
2021/08/16 01:11:12;;;;;;;8.10;7.37;;;16.50;99.90;;;;;;5044510;28;20183;-66
2021/08/16 01:13:37;;;;;;;7.20;6.07;;;16.50;99.90;;;;;;5032173;28;20168;-66
2021/08/16 01:16:05;;;;;;;7.37;6.67;;;16.40;99.90;;;;;;5031625;28;20683;-67
2021/08/16 01:18:33;;;;;;;7.37;6.77;;;16.40;99.90;;;;;;5032366;28;20684;-67
2021/08/16 01:21:01;;;;;;;7.17;6.47;;;16.30;99.90;;;;;;5037012;28;20261;-66
2021/08/16 01:23:27;;;;;;;8.33;6.43;;;16.30;99.90;;;;;;5052067;28;20533;-66
2021/08/16 01:25:53;;;;;;;8.07;6.33;;;16.20;99.90;;;;;;5046472;28;20180;-66
2021/08/16 01:28:20;;;;;;;8.83;6.40;;;16.20;99.90;;;;;;5032165;28;20250;-66
2021/08/16 01:30:46;;;;;;;6.97;6.47;;;16.20;99.90;;;;;;5033720;28;20294;-67
2021/08/16 01:33:12;;;;;;;7.40;6.73;;;16.10;99.90;;;;;;5052059;28;20178;-66
2021/08/16 01:35:38;;;;;;;6.03;5.60;;;16.10;99.90;;;;;;5051051;28;20652;-67
2021/08/16 01:38:04;;;;;;;6.93;6.23;;;16.10;99.90;;;;;;5031881;28;20237;-66
2021/08/16 01:40:30;;;;;;;6.67;6.07;;;16.10;99.90;;;;;;5031963;28;20218;-66
2021/08/16 01:42:55;;;;;;;6.33;5.90;;;16.10;99.90;;;;;;5051509;28;20313;-67
2021/08/16 01:45:21;;;;;;;7.10;6.40;;;16.10;99.90;;;;;;5051974;28;20171;-66
2021/08/16 01:47:47;;;;;;;6.30;5.90;;;16.10;99.90;;;;;;5033055;28;20200;-67
2021/08/16 01:50:13;;;;;;;6.73;6.20;;;16.10;99.90;;;;;;5030180;28;20268;-66
2021/08/16 01:52:39;;;;;;;6.70;6.10;;;16.10;99.90;;;;;;5047921;28;20559;-67
2021/08/16 01:55:06;;;;;;;6.50;5.97;;;16.10;99.90;;;;;;5051612;28;20629;-67
2021/08/16 01:57:32;;;;;;;6.10;5.53;;;16.10;99.90;;;;;;5036122;28;20672;-66
2021/08/16 01:59:57;;;;;;;6.47;5.90;;;16.00;99.90;;;;;;5031391;28;20190;-67
2021/08/16 02:02:23;;;;;;;6.63;6.00;;;16.00;99.90;;;;;;5034117;28;20676;-65
2021/08/16 02:04:49;;;;;;;6.73;6.17;;;16.00;99.90;;;;;;5031660;28;20641;-66
2021/08/16 02:07:15;;;;;;;6.47;6.00;;;16.00;99.90;;;;;;5043564;28;20190;-67
2021/08/16 02:09:41;;;;;;;6.87;6.13;;;16.00;99.90;;;;;;5034328;28;20201;-67
2021/08/16 02:12:07;;;;;;;8.83;5.97;;;15.90;99.90;;;;;;5040640;28;20663;-67
2021/08/16 02:14:33;;;;;;;6.50;5.80;;;15.90;99.90;;;;;;5051387;28;20170;-67
2021/08/16 02:16:59;;;;;;;6.60;6.07;;;15.80;99.90;;;;;;5041978;28;20206;-66
2021/08/16 02:19:24;;;;;;;7.57;6.63;;;15.80;99.90;;;;;;5031342;28;20175;-66
2021/08/16 02:21:50;;;;;;;6.63;6.13;;;15.80;99.90;;;;;;5039099;28;20183;-66
2021/08/16 02:24:15;;;;;;;7.73;6.53;;;15.80;99.90;;;;;;5051277;28;20181;-67
2021/08/16 02:26:41;;;;;;;6.67;6.17;;;15.80;99.90;;;;;;5044540;28;20195;-66
2021/08/16 02:29:09;;;;;;;7.13;6.57;;;15.80;99.90;;;;;;5035185;28;20195;-66
2021/08/16 02:31:35;;;;;;;6.03;5.63;;;15.80;99.90;;;;;;5039470;28;20174;-66
2021/08/16 02:34:00;;;;;;;6.60;6.10;;;15.90;99.90;;;;;;5055352;28;20170;-66
2021/08/16 02:36:26;;;;;;;6.83;6.33;;;15.90;99.90;;;;;;5051842;28;20615;-66
2021/08/16 02:38:51;;;;;;;5.60;5.20;;;15.90;99.90;;;;;;5035245;28;20168;-66
2021/08/16 02:41:17;;;;;;;9.63;6.43;;;16.00;99.90;;;;;;5036990;28;20199;-67
2021/08/16 02:43:43;;;;;;;6.10;5.60;;;16.00;99.90;;;;;;5055011;28;20553;-66
2021/08/16 02:46:08;;;;;;;5.97;5.57;;;16.00;99.90;;;;;;5054386;28;20218;-66
2021/08/16 02:48:34;;;;;;;6.20;5.80;;;16.00;99.90;;;;;;5033877;28;20177;-66
2021/08/16 02:51:00;;;;;;;6.00;5.60;;;16.00;99.90;;;;;;5033900;28;20211;-67
2021/08/16 02:53:25;;;;;;;6.63;5.87;;;16.00;99.90;;;;;;5054840;28;20234;-71
2021/08/16 02:55:51;;;;;;;5.33;5.00;;;16.00;99.90;;;;;;5054417;28;20175;-68
2021/08/16 02:58:16;;;;;;;5.37;5.07;;;16.00;99.90;;;;;;5037518;28;20262;-69
2021/08/16 03:00:42;;;;;;;6.00;5.40;;;16.10;99.90;;;;;;5035633;28;20176;-70
2021/08/16 03:03:08;;;;;;;7.80;5.30;;;16.10;99.90;;;;;;5051942;28;20560;-68
2021/08/16 03:05:33;;;;;;;7.33;5.83;;;16.00;99.90;;;;;;5055483;28;20171;-65
2021/08/16 03:07:59;;;;;;;7.33;6.70;;;16.00;99.90;;;;;;5040041;28;20204;-65
2021/08/16 03:10:25;;;;;;;8.40;7.30;;;16.00;99.90;;;;;;5051640;28;20206;-65
2021/08/16 03:12:50;;;;;;;9.57;6.53;;;16.00;99.90;;;;;;5059563;28;20189;-65
2021/08/16 03:15:16;;;;;;;7.60;6.67;;;16.00;99.90;;;;;;5054306;28;20182;-65
2021/08/16 03:17:42;;;;;;;8.73;6.83;;;15.90;99.90;;;;;;5052464;28;20222;-64
2021/08/16 03:20:08;;;;;;;7.47;6.97;;;15.90;99.90;;;;;;5054277;28;20178;-65
2021/08/16 03:22:34;;;;;;;8.03;7.43;;;16.00;99.90;;;;;;5044099;28;20202;-65
2021/08/16 03:25:00;;;;;;;7.93;5.90;;;16.00;99.90;;;;;;5034633;28;20187;-65
2021/08/16 03:27:26;;;;;;;7.63;6.93;;;16.00;99.90;;;;;;5042461;28;20202;-65
2021/08/16 03:29:51;;;;;;;6.70;6.30;;;15.90;99.90;;;;;;5053659;28;20276;-65
2021/08/16 03:32:17;;;;;;;6.30;5.70;;;16.00;99.90;;;;;;5047470;28;20183;-65
2021/08/16 03:34:42;;;;;;;5.73;5.43;;;15.90;99.90;;;;;;5034513;28;20677;-65
2021/08/16 03:37:08;;;;;;;6.23;5.83;;;16.00;99.90;;;;;;5021280;28;20191;-65
2021/08/16 03:39:34;;;;;;;10.90;6.27;;;15.90;99.90;;;;;;5052118;28;20332;-65
2021/08/16 03:42:00;;;;;;;6.77;6.10;;;15.90;99.90;;;;;;5052531;28;20270;-65
2021/08/16 03:44:25;;;;;;;6.90;5.97;;;16.00;99.90;;;;;;5054356;28;20201;-65
2021/08/16 03:46:51;;;;;;;7.23;6.23;;;16.00;99.90;;;;;;5050212;28;20203;-65
2021/08/16 03:49:17;;;;;;;6.77;6.20;;;16.00;99.90;;;;;;5033912;28;20239;-65
2021/08/16 03:51:43;;;;;;;8.57;6.43;;;16.00;99.90;;;;;;5033635;28;20180;-65
2021/08/16 03:54:08;;;;;;;7.00;6.20;;;16.10;99.90;;;;;;5053851;28;20541;-65
2021/08/16 03:56:34;;;;;;;6.63;6.10;;;16.10;99.90;;;;;;5053663;28;20191;-65
2021/08/16 03:59:00;;;;;;;9.13;6.23;;;16.20;99.90;;;;;;5034904;28;20195;-65
2021/08/16 04:01:26;;;;;;;7.17;6.10;;;16.20;99.90;;;;;;5033466;28;20176;-65
2021/08/16 04:03:51;;;;;;;6.80;6.10;;;16.20;99.90;;;;;;5051017;28;20243;-65
2021/08/16 04:06:17;;;;;;;6.90;6.23;;;16.20;99.90;;;;;;5053519;28;20278;-65
2021/08/16 04:08:43;;;;;;;12.55;6.90;;;16.20;99.90;;;;;;5037201;28;20384;-65
2021/08/16 04:11:11;;;;;;;8.17;6.23;;;16.30;99.90;;;;;;5033363;28;20230;-65
2021/08/16 04:13:37;;;;;;;9.70;6.30;;;16.40;99.90;;;;;;5047739;28;20182;-65
2021/08/16 04:16:03;;;;;;;6.80;6.20;;;16.40;99.90;;;;;;5053461;28;20202;-65
2021/08/16 04:18:29;;;;;;;6.50;6.00;;;16.50;99.90;;;;;;5040701;28;20176;-65
2021/08/16 04:20:55;;;;;;;7.43;6.67;;;16.50;99.90;;;;;;5033002;28;20549;-66
2021/08/16 04:23:21;;;;;;;7.97;7.23;;;16.40;99.90;;;;;;5045318;28;20229;-65
2021/08/16 04:25:46;;;;;;;6.90;6.20;;;16.40;99.90;;;;;;5052910;28;20183;-65
2021/08/16 04:28:12;;;;;;;6.17;5.70;;;16.40;99.90;;;;;;5042606;28;20184;-65
2021/08/16 04:30:39;;;;;;;6.53;6.13;;;16.40;99.90;;;;;;5032740;28;20199;-66
2021/08/16 04:33:05;;;;;;;9.83;6.93;;;16.40;99.90;;;;;;5041853;28;20175;-65
2021/08/16 04:35:30;;;;;;;6.87;6.17;;;16.50;99.90;;;;;;5052995;28;20262;-65
2021/08/16 04:37:56;;;;;;;7.73;5.93;;;16.40;99.90;;;;;;5045516;28;20214;-65
2021/08/16 04:40:21;;;;;;;7.83;6.70;;;16.40;99.90;;;;;;5032715;28;20572;-65
2021/08/16 04:42:47;;;;;;;8.70;6.63;;;16.50;99.90;;;;;;5038722;28;20186;-66
2021/08/16 04:45:13;;;;;;;8.43;6.10;;;16.50;99.90;;;;;;5052853;28;20236;-65
2021/08/16 04:47:43;;;;;;;6.83;6.23;;;16.60;99.90;;;;;;5047839;28;20198;-65
2021/08/16 04:50:09;;;;;;;7.03;6.37;;;16.60;99.90;;;;;;5031643;28;20556;-66
2021/08/16 04:52:34;;;;;;;11.07;6.70;;;16.60;99.90;;;;;;5035086;28;20217;-66
2021/08/16 04:55:00;;;;;;;8.80;6.10;;;16.60;99.90;;;;;;5032655;28;20195;-65
2021/08/16 04:57:30;;;;;;;6.80;6.20;;;16.60;99.90;;;;;;5032555;28;20236;-65
2021/08/16 04:59:56;;;;;;;7.73;7.00;;;16.70;99.90;;;;;;5052015;28;20257;-65
2021/08/16 05:02:22;;;;;;;6.60;6.20;;;16.70;99.90;;;;;;5035043;28;20578;-65
2021/08/16 05:04:53;;;;;;;6.50;6.00;;;16.70;99.90;;;;;;5032260;28;20207;-66
2021/08/16 05:07:19;;;;;;;6.87;6.37;;;16.70;99.90;;;;;;5048314;28;20567;-66
2021/08/16 05:09:45;;;;;;;7.00;6.30;;;16.70;99.90;;;;;;5050346;28;20214;-65
2021/08/16 05:12:11;;;;;;;7.83;7.13;;;16.70;99.90;;;;;;5035434;28;20283;-66
2021/08/16 05:14:36;;;;;;;7.00;6.33;;;16.80;99.90;;;;;;5051213;28;20257;-65
2021/08/16 05:17:02;;;;;;;7.00;6.30;;;16.70;99.90;;;;;;5042871;28;20691;-66
2021/08/16 05:19:28;;;;;;;11.77;6.23;;;16.80;99.90;;;;;;5051794;28;20225;-66
2021/08/16 05:21:53;;;;;;;6.30;5.70;;;16.80;99.90;;;;;;5050042;28;20710;-65
2021/08/16 05:24:19;;;;;;;7.87;5.77;;;16.80;99.90;;;;;;5052107;28;20186;-66
2021/08/16 05:26:45;;;;;;;6.73;6.00;;;16.80;99.90;;;;;;5041594;28;20203;-66
2021/08/16 05:29:11;;;;;;;7.10;5.80;;;16.80;99.90;;;;;;5032108;28;20591;-65
2021/08/16 05:31:36;;;;;;;6.47;5.90;;;16.90;99.90;;;;;;5038520;28;20209;-66
2021/08/16 05:34:02;;;;;;;10.50;6.10;;;16.90;99.90;;;;;;5052091;28;20182;-65
2021/08/16 05:36:27;;;;;;;8.13;5.60;;;16.90;99.90;;;;;;5043141;28;20257;-67
2021/08/16 05:38:53;;;;;;;7.93;5.90;;;16.90;99.90;;;;;;5032110;28;20202;-65
2021/08/16 05:41:18;;;;;;;13.33;6.50;;;16.90;99.90;;;;;;5036795;28;20194;-65
2021/08/16 05:43:44;;;;;;;8.10;6.30;;;17.00;99.90;;;;;;5050258;28;20328;-66
2021/08/16 05:46:10;;;;;;;6.10;5.77;;;17.10;99.90;;;;;;5046647;28;20199;-65
2021/08/16 05:48:35;;;;;;;6.50;5.83;;;17.10;99.90;;;;;;5031733;28;20601;-65
2021/08/16 05:51:01;;;;;;;7.83;6.23;;;17.10;99.90;;;;;;5042969;28;20221;-66
2021/08/16 05:53:27;;;;;;;5.87;5.47;;;17.20;99.90;;;;;;5051731;28;20206;-66
2021/08/16 05:55:52;;;;;;;9.10;7.27;;;17.20;99.90;;;;;;5041106;28;20647;-65
2021/08/16 05:58:18;;;;;;;11.80;7.03;;;17.30;99.90;;;;;;5031801;28;20587;-66
2021/08/16 06:00:43;;;;;;;7.73;6.93;;;17.40;99.90;;;;;;5038753;28;20187;-66
2021/08/16 06:03:09;;;;;;;7.20;6.60;;;17.40;99.90;;;;;;5050262;28;20296;-66
2021/08/16 06:05:35;;;;;;;8.93;6.47;;;17.50;99.90;;;;;;5044133;28;20194;-65
2021/08/16 06:08:00;;;;;;;8.73;6.20;;;17.50;99.90;;;;;;5031352;28;20191;-66
2021/08/16 06:10:26;;;;;;;13.33;6.73;;;17.50;99.90;;;;;;5036418;28;20199;-66
2021/08/16 06:12:52;;;;;;;9.37;6.67;;;17.70;99.90;;;;;;5051377;28;20175;-65
2021/08/16 06:15:17;;;;;;;6.23;5.73;;;17.80;99.90;;;;;;5047602;28;20183;-65
2021/08/16 06:17:43;;;;;;;7.57;6.80;;;18.00;99.90;;;;;;5036566;28;20214;-65
2021/08/16 06:20:10;;;;;;;7.10;6.10;;;18.00;99.90;;;;;;5034532;28;20171;-66
2021/08/16 06:22:37;;;;;;;7.17;6.13;;;18.10;99.90;;;;;;5051251;28;20175;-65
2021/08/16 06:25:03;;;;;;;7.00;6.40;;;18.10;99.90;;;;;;5050623;28;20177;-66
2021/08/16 06:27:30;;;;;;;6.73;6.20;;;18.10;99.90;;;;;;5030579;28;20199;-66
2021/08/16 06:29:55;;;;;;;7.50;6.47;;;18.10;99.90;;;;;;5029562;28;20199;-66
2021/08/16 06:32:21;;;;;;;7.90;7.07;;;18.10;99.90;;;;;;5050132;28;20182;-65
2021/08/16 06:34:48;;;;;;;6.57;6.00;;;18.10;99.90;;;;;;5049653;28;20648;-65
2021/08/16 06:37:14;;;;;;;6.87;5.80;;;18.10;99.90;;;;;;5031028;28;20203;-65
2021/08/16 06:39:39;;;;;;;7.47;5.90;;;18.10;99.90;;;;;;5030451;28;20655;-65
2021/08/16 06:42:05;;;;;;;6.73;5.90;;;18.10;99.90;;;;;;5047574;28;20244;-65
2021/08/16 06:44:31;;;;;;;6.03;5.63;;;18.20;99.90;;;;;;5049642;28;20181;-65
2021/08/16 06:46:57;;;;;;;11.67;6.20;;;18.20;99.90;;;;;;5049213;28;20199;-65
2021/08/16 06:49:24;;;;;;;6.47;5.87;;;18.30;99.90;;;;;;5050677;28;20218;-65
2021/08/16 06:51:50;;;;;;;6.97;5.93;;;18.40;99.90;;;;;;5035522;28;20218;-65
2021/08/16 06:54:16;;;;;;;6.47;5.97;;;18.50;99.90;;;;;;5030989;28;20172;-65
2021/08/16 06:56:42;;;;;;;7.27;6.67;;;18.50;99.90;;;;;;5031797;28;20210;-65
2021/08/16 06:59:07;;;;;;;6.63;5.50;;;18.50;99.90;;;;;;5031032;28;20730;-65
2021/08/16 07:01:33;;;;;;;8.23;5.97;;;18.60;99.90;;;;;;5040673;28;20190;-65
2021/08/16 07:03:58;;;;;;;5.97;5.33;;;18.70;99.90;;;;;;5051306;28;20190;-66
2021/08/16 07:06:25;;;;;;;6.77;5.60;;;18.80;99.90;;;;;;5042025;28;20321;-66
2021/08/16 07:08:51;;;;;;;6.57;5.97;;;18.80;99.90;;;;;;5030946;28;20164;-66
2021/08/16 07:11:18;;;;;;;7.47;6.70;;;18.90;99.90;;;;;;5045794;28;20179;-66
2021/08/16 07:13:43;;;;;;;14.03;6.07;;;18.90;99.90;;;;;;5061813;28;20171;-66
2021/08/16 07:16:09;;;;;;;9.33;6.60;;;18.90;99.90;;;;;;5058456;28;20233;-66
2021/08/16 07:18:35;;;;;;;7.00;6.30;;;18.80;99.90;;;;;;5043637;28;20174;-65
2021/08/16 07:21:02;;;;;;;5.80;5.40;;;18.70;99.90;;;;;;5053976;28;20175;-66
2021/08/16 07:23:27;;;;;;;6.77;6.17;;;18.60;99.90;;;;;;5052116;28;20659;-66
2021/08/16 07:25:58;;;;;;;6.43;5.90;;;18.80;99.90;;;;;;5033947;28;20171;-66
2021/08/16 07:28:25;;;;;;;6.67;6.13;;;19.00;99.90;;;;;;5035268;28;20179;-66
2021/08/16 07:30:50;;;;;;;6.10;5.70;;;19.30;99.90;;;;;;5048696;28;20281;-66
2021/08/16 07:33:16;;;;;;;7.70;6.73;;;19.60;99.90;;;;;;5032979;28;20167;-66
2021/08/16 07:35:41;;;;;;;6.83;6.20;;;19.80;99.90;;;;;;5053147;28;20178;-67
2021/08/16 07:38:07;;;;;;;6.27;5.77;;;19.80;99.90;;;;;;5053956;28;20222;-66
2021/08/16 07:40:33;;;;;;;8.83;6.03;;;19.80;99.90;;;;;;5034218;28;20237;-66
2021/08/16 07:42:58;;;;;;;5.90;5.50;;;20.10;99.90;;;;;;5033926;28;20656;-66
2021/08/16 07:45:24;;;;;;;6.87;5.13;;;20.50;99.90;;;;;;5049681;28;20716;-66
2021/08/16 07:47:51;;;;;;;6.00;4.90;;;20.70;99.90;;;;;;5052212;28;20198;-66
2021/08/16 07:50:17;;;;;;;5.00;4.70;;;21.00;99.90;;;;;;5037810;28;20308;-66
2021/08/16 07:52:44;;;;;;;6.60;4.93;;;21.20;99.90;;;;;;5033708;28;20203;-67
2021/08/16 07:55:10;;;;;;;6.57;5.10;;;21.50;99.90;;;;;;5045984;28;20664;-67
2021/08/16 07:57:36;;;;;;;6.37;4.70;;;21.60;99.90;;;;;;5053465;28;20194;-67
2021/08/16 08:00:04;;;;;;;6.47;5.93;;;21.50;99.90;;;;;;5040880;28;20587;-67
2021/08/16 08:02:41;;;;;;;5.20;4.70;;;21.20;99.90;;;;;;5032271;28;20183;-67
2021/08/16 08:05:09;;;;;;;5.20;4.73;;;21.00;99.90;;;;;;5044250;28;20282;-67
2021/08/16 08:07:35;;;;;;;8.10;5.60;;;20.80;99.90;;;;;;5051873;28;20544;-67
2021/08/16 08:10:00;;;;;;;6.13;5.73;;;20.60;99.90;;;;;;5039648;28;20209;-67
2021/08/16 08:12:26;;;;;;;6.00;5.50;;;20.20;99.90;;;;;;5033663;28;20645;-68
2021/08/16 08:14:51;;;;;;;10.13;5.37;;;20.00;99.90;;;;;;5042884;28;20542;-68
2021/08/16 08:17:17;;;;;;;5.37;5.00;;;19.90;99.90;;;;;;5051798;28;20218;-67
2021/08/16 08:19:42;;;;;;;9.83;6.17;;;19.90;99.90;;;;;;5044315;28;20245;-68
2021/08/16 08:22:08;;;;;;;7.83;6.97;;;19.90;99.90;;;;;;5044996;28;20181;-67
2021/08/16 08:24:34;;;;;;;10.67;5.80;;;19.90;99.90;;;;;;5044332;28;20238;-67
2021/08/16 08:27:00;;;;;;;6.13;5.53;;;20.00;99.90;;;;;;5032788;28;20199;-67
2021/08/16 08:29:25;;;;;;;6.10;5.47;;;20.10;99.90;;;;;;5038515;28;20198;-67
2021/08/16 08:31:51;;;;;;;5.83;5.40;;;20.10;99.90;;;;;;5052874;28;20175;-67
2021/08/16 08:34:17;;;;;;;6.20;5.70;;;20.10;99.90;;;;;;5049038;28;20176;-67
2021/08/16 08:36:44;;;;;;;7.13;5.40;;;20.10;99.90;;;;;;5032894;28;20603;-67
2021/08/16 08:39:10;;;;;;;6.37;5.87;;;20.20;99.90;;;;;;5035609;28;20183;-67
2021/08/16 08:41:36;;;;;;;7.67;5.57;;;20.20;99.90;;;;;;5052067;28;20317;-66
2021/08/16 08:44:10;;;;;;;5.57;5.07;;;20.10;99.90;;;;;;5051374;28;20187;-67
2021/08/16 08:46:38;;;;;;;8.13;6.60;;;20.30;99.90;;;;;;5031333;28;20196;-67
2021/08/16 08:49:04;;;;;;;6.20;5.50;;;20.50;99.90;;;;;;5032519;28;20663;-67
2021/08/16 08:51:30;;;;;;;5.37;4.87;;;20.70;99.90;;;;;;5051016;28;20209;-68
2021/08/16 08:53:55;;;;;;;7.53;5.43;;;20.90;99.90;;;;;;5052202;28;20532;-67
2021/08/16 08:56:21;;;;;;;7.27;5.87;;;21.30;99.90;;;;;;5032999;28;20199;-67
2021/08/16 08:58:47;;;;;;;6.03;4.93;;;21.60;99.90;;;;;;5031001;28;20263;-67
2021/08/16 09:01:12;;;;;;;5.72;5.07;;;22.00;99.90;;;;;;5034839;28;20645;-67
2021/08/16 09:03:49;;;;;;;6.72;5.03;;;22.40;99.90;;;;;;5032290;28;20221;-67
2021/08/16 09:06:26;;;;;;;5.32;4.82;;;22.80;99.90;;;;;;5049338;28;20612;-68
2021/08/16 09:08:52;;;;;;;4.57;4.20;;;23.20;99.90;;;;;;5052094;28;20181;-67
2021/08/16 09:11:18;;;;;;;5.40;4.95;;;23.10;99.90;;;;;;5033536;28;20250;-67
2021/08/16 09:14:06;;;;;;;5.67;4.80;;;22.40;99.90;;;;;;5032368;28;20210;-68
2021/08/16 09:16:34;;;;;;;5.03;4.53;;;22.00;99.90;;;;;;5051044;28;20253;-67
2021/08/16 09:19:21;;;;;;;5.20;4.90;;;22.00;99.90;;;;;;5039863;28;20266;-67
2021/08/16 09:24:55;;;;;;;6.50;6.00;;;21.80;99.90;;;;;;5025146;28;20195;-68
2021/08/16 09:27:20;;;;;;;5.83;5.20;;;21.50;99.90;;;;;;5051783;28;20276;-67
2021/08/16 09:29:50;;;;;;;7.23;6.63;;;20.90;99.90;;;;;;5034047;28;20306;-67
2021/08/16 09:32:17;;;;;;;7.00;5.70;;;20.60;99.90;;;;;;5030600;28;20172;-66
2021/08/16 09:34:48;;;;;;;5.23;4.90;;;20.40;99.90;;;;;;5046143;28;20174;-67
2021/08/16 09:37:25;;;;;;;6.10;5.50;;;20.30;99.90;;;;;;5051398;28;20195;-67
2021/08/16 09:40:04;;;;;;;7.10;5.73;;;20.30;99.90;;;;;;5033491;28;20187;-68
2021/08/16 09:42:46;;;;;;;5.70;5.20;;;20.50;99.90;;;;;;5030437;28;20244;-66
2021/08/16 09:45:34;;;;;;;6.60;6.13;;;20.60;99.90;;;;;;5032220;28;20276;-66
2021/08/16 09:48:01;;;;;;;7.47;6.87;;;20.70;99.90;;;;;;5032071;28;20206;-67
2021/08/16 09:50:39;;;;;;;6.07;5.27;;;20.70;99.90;;;;;;5051182;28;20276;-67
2021/08/16 09:53:16;;;;;;;5.23;4.73;;;20.60;99.90;;;;;;5050329;28;20162;-67
2021/08/16 09:55:45;;;;;;;5.67;5.17;;;20.50;99.90;;;;;;5048591;28;20170;-67
2021/08/16 09:58:13;;;;;;;9.13;6.40;;;20.90;99.90;;;;;;5049345;28;20179;-66
2021/08/16 10:00:41;;;;;;;7.00;4.90;;;21.40;99.90;;;;;;5050996;28;20517;-67
2021/08/16 10:03:08;;;;;;;5.57;5.07;;;22.20;99.90;;;;;;5050454;28;20170;-67
2021/08/16 10:05:38;;;;;;;5.45;4.78;;;22.40;99.90;;;;;;5030021;28;20183;-67
2021/08/16 10:08:12;;;;;;;4.90;4.60;;;22.40;99.90;;;;;;5046491;28;20261;-67
2021/08/16 10:10:40;;;;;;;9.63;4.63;;;22.50;99.90;;;;;;5050896;28;20198;-67
2021/08/16 10:13:08;;;;;;;5.35;4.82;;;22.50;99.90;;;;;;5050702;28;20257;-67
2021/08/16 10:15:42;;;;;;;5.28;4.78;;;22.50;99.90;;;;;;5051212;28;20534;-67
2021/08/16 10:18:15;;;;;;;5.60;5.00;;;22.40;99.90;;;;;;5050786;28;20213;-66
2021/08/16 10:20:44;;;;;;;6.67;5.17;;;22.20;99.90;;;;;;5050797;28;20163;-66
2021/08/16 10:23:24;;;;;;;5.50;4.93;;;21.90;99.90;;;;;;5035469;28;20195;-66
2021/08/16 10:25:53;;;;;;;6.80;5.30;;;21.80;99.90;;;;;;5030904;28;20175;-66
2021/08/16 10:28:52;;;;;;;5.37;5.00;;;21.70;99.90;;;;;;5046570;28;20198;-66
2021/08/16 10:31:25;;;;;;;7.50;5.37;;;21.50;99.90;;;;;;5030803;28;20203;-66
2021/08/16 10:33:51;;;;;;;5.87;5.30;;;21.40;99.90;;;;;;5031238;28;20172;-65
2021/08/16 10:36:20;;;;;;;6.77;6.23;;;21.20;99.90;;;;;;5029594;28;20256;-66
2021/08/16 10:38:54;;;;;;;5.30;5.00;;;21.30;99.90;;;;;;5049440;28;20545;-66
2021/08/16 10:41:24;;;;;;;7.33;6.83;;;21.10;99.90;;;;;;5051139;28;20588;-66
2021/08/16 10:43:50;;;;;;;5.47;5.00;;;21.00;99.90;;;;;;5031182;28;20588;-66
2021/08/16 10:46:23;;;;;;;9.40;5.80;;;20.80;99.90;;;;;;5030984;28;20241;-66
2021/08/16 10:49:03;;;;;;;5.77;5.10;;;20.60;99.90;;;;;;5050890;28;20187;-66
2021/08/16 10:51:46;;;;;;;4.97;4.57;;;20.40;99.90;;;;;;5054603;28;20810;-66
2021/08/16 10:54:22;;;;;;;6.60;6.10;;;20.40;99.90;;;;;;5035059;28;20207;-66
2021/08/16 10:56:51;;;;;;;6.77;6.27;;;19.40;99.90;;;;;;5035070;28;20544;-66
2021/08/16 10:59:21;;;;;;;5.90;5.50;;;18.50;99.90;;;;;;5054531;28;20257;-66
2021/08/16 11:01:47;;;;;;;7.10;6.10;;;17.80;99.90;;;;;;5053206;28;20254;-66
2021/08/16 11:04:15;;;;;;;7.00;6.50;;;17.20;99.90;;;;;;5034621;28;20699;-66
2021/08/16 11:07:05;;;;;;;6.17;5.80;;;16.80;99.90;;;;;;5034559;28;20192;-66
2021/08/16 11:09:34;;;;;;;6.20;5.60;;;16.60;99.90;;;;;;5036385;28;20233;-66
2021/08/16 11:12:05;;;;;;;5.50;5.20;;;16.40;99.90;;;;;;5046396;28;20179;-66
2021/08/16 11:14:32;;;;;;;5.23;5.00;;;16.30;99.90;;;;;;5066689;28;20167;-66
2021/08/16 11:16:58;;;;;;;5.80;5.50;;;16.30;99.90;;;;;;5053955;28;20215;-66
2021/08/16 11:19:26;;;;;;;5.70;5.40;;;16.40;99.90;;;;;;5034076;28;20191;-66
2021/08/16 11:21:58;;;;;;;6.60;6.13;;;16.60;99.90;;;;;;5033297;28;20691;-66
2021/08/16 11:24:29;;;;;;;6.60;6.20;;;16.60;99.90;;;;;;5032758;28;20219;-66
2021/08/16 11:26:55;;;;;;;7.03;6.50;;;16.70;99.90;;;;;;5033300;28;20204;-66
2021/08/16 11:29:23;;;;;;;6.17;5.77;;;16.70;99.90;;;;;;5049032;28;20347;-66
2021/08/16 11:32:01;;;;;;;7.10;6.40;;;16.70;99.90;;;;;;5053971;28;20209;-66
2021/08/16 11:34:50;;;;;;;7.70;7.20;;;16.50;99.90;;;;;;5034142;28;20563;-66
2021/08/16 11:37:17;;;;;;;8.40;7.80;;;16.50;99.90;;;;;;5034814;28;20206;-67
2021/08/16 11:39:46;;;;;;;8.10;7.40;;;16.60;99.90;;;;;;5038509;28;20171;-66
2021/08/16 11:42:12;;;;;;;8.07;7.40;;;16.90;99.90;;;;;;5052435;28;20174;-66
2021/08/16 11:44:38;;;;;;;8.43;7.73;;;17.00;99.90;;;;;;5033859;28;20171;-66
2021/08/16 11:47:04;;;;;;;7.90;7.30;;;17.00;99.90;;;;;;5032650;28;20347;-67
2021/08/16 11:49:35;;;;;;;8.53;7.93;;;17.00;99.90;;;;;;5052597;28;20240;-66
2021/08/16 11:52:02;;;;;;;9.23;8.53;;;17.10;99.90;;;;;;5052302;28;20244;-66
2021/08/16 11:54:30;;;;;;;9.17;8.43;;;17.10;99.90;;;;;;5033809;28;20171;-66
2021/08/16 11:56:58;;;;;;;9.00;8.30;;;17.00;99.90;;;;;;5033450;28;20195;-66
2021/08/16 11:59:25;;;;;;;10.13;9.23;;;16.90;99.90;;;;;;5049788;28;20181;-66
2021/08/16 12:01:54;;;;;;;10.77;9.73;;;16.70;99.90;;;;;;5051842;28;20277;-66
2021/08/16 12:04:21;;;;;;;10.33;9.13;;;16.70;99.90;;;;;;5034887;28;20186;-67
2021/08/16 12:06:49;;;;;;;10.07;9.33;;;16.60;99.90;;;;;;5033191;28;20203;-67
2021/08/16 12:09:16;;;;;;;10.20;9.50;;;16.60;99.90;;;;;;5048807;28;20182;-68
2021/08/16 12:11:42;;;;;;;10.63;9.63;;;16.50;99.90;;;;;;5053144;28;20183;-66
2021/08/16 12:14:08;;;;;;;12.03;10.80;;;16.40;99.90;;;;;;5037471;28;20175;-67
2021/08/16 12:16:35;;;;;;;9.20;8.50;;;16.30;99.90;;;;;;5031830;28;20242;-66
2021/08/16 12:19:03;;;;;;;10.30;9.33;;;16.00;99.90;;;;;;5046127;28;20187;-67
2021/08/16 12:21:29;;;;;;;10.63;9.17;;;15.90;99.90;;;;;;5051705;28;20171;-67
2021/08/16 12:24:06;;;;;;;9.37;8.50;;;15.70;99.90;;;;;;5039246;28;20582;-66
2021/08/16 12:26:37;;;;;;;10.47;9.30;;;15.60;99.90;;;;;;5033112;28;20685;-66
2021/08/16 12:29:14;;;;;;;10.87;9.87;;;15.60;99.90;;;;;;5045527;28;20183;-68
2021/08/16 12:31:40;;;;;;;9.33;8.47;;;15.60;99.90;;;;;;5034599;28;20184;-67
2021/08/16 12:34:08;;;;;;;10.30;9.37;;;15.60;99.90;;;;;;5037802;28;20190;-67
2021/08/16 12:36:38;;;;;;;9.47;8.77;;;15.70;99.90;;;;;;5052644;28;20199;-67
2021/08/16 12:39:14;;;;;;;12.83;10.00;;;15.90;99.90;;;;;;5049508;28;20254;-67
2021/08/16 12:41:40;;;;;;;10.93;10.03;;;16.00;99.90;;;;;;5052432;28;20675;-67
2021/08/16 12:44:24;;;;;;;11.27;10.27;;;16.10;99.90;;;;;;5040065;28;20560;-67
2021/08/16 12:47:03;;;;;;;10.63;9.63;;;16.10;99.90;;;;;;5032572;28;20195;-66
2021/08/16 12:49:29;;;;;;;12.03;10.77;;;16.20;99.90;;;;;;5047028;28;20289;-67